createdAt,value
2017-05-25T00:00:44.603Z,15.03
2017-05-25T00:03:13.431Z,11.10
2017-05-25T00:05:42.244Z,12.38
2017-05-25T00:08:11.076Z,12.10
2017-05-25T00:10:39.968Z,11.87
2017-05-25T00:13:08.787Z,12.80
2017-05-25T00:15:37.815Z,13.73
2017-05-25T00:18:06.616Z,14.10
2017-05-25T00:20:35.431Z,14.18
2017-05-25T00:23:04.271Z,17.98
2017-05-25T00:25:33.223Z,20.52
2017-05-25T00:28:02.011Z,14.90
2017-05-25T00:30:30.855Z,13.67
2017-05-25T00:32:59.817Z,20.28
2017-05-25T00:35:28.627Z,20.42
2017-05-25T00:37:57.444Z,16.15
2017-05-25T00:40:26.551Z,12.02
2017-05-25T00:42:55.394Z,13.48
2017-05-25T00:45:25.111Z,15.80
2017-05-25T00:47:54.043Z,12.68
2017-05-25T00:50:22.835Z,16.62
2017-05-25T00:52:51.659Z,15.55
2017-05-25T00:55:20.591Z,14.87
2017-05-25T00:57:49.499Z,19.78
2017-05-25T01:00:18.359Z,99.38
2017-05-25T01:02:47.563Z,111.08
2017-05-25T01:05:16.602Z,76.85
2017-05-25T01:07:45.427Z,16.60
2017-05-25T01:10:14.235Z,15.57
2017-05-25T01:12:43.031Z,19.65
2017-05-25T01:15:11.863Z,16.85
2017-05-25T01:17:40.738Z,14.20
2017-05-25T01:20:09.595Z,14.40
2017-05-25T01:22:38.447Z,15.18
2017-05-25T01:25:07.371Z,18.10
2017-05-25T01:27:36.267Z,22.17
2017-05-25T01:30:05.098Z,15.82
2017-05-25T01:32:34.003Z,15.73
2017-05-25T01:35:02.038Z,15.55
2017-05-25T01:37:30.835Z,17.17
2017-05-25T01:39:59.679Z,12.97
2017-05-25T01:42:28.478Z,13.75
2017-05-25T01:44:57.250Z,14.47
2017-05-25T01:47:26.078Z,16.55
2017-05-25T01:49:54.866Z,16.95
2017-05-25T01:52:23.670Z,15.18
2017-05-25T01:54:52.498Z,18.70
2017-05-25T01:57:21.278Z,16.13
2017-05-25T01:59:50.107Z,17.83
2017-05-25T02:02:20.201Z,13.83
2017-05-25T02:04:49.003Z,19.45
2017-05-25T02:07:18.046Z,13.10
2017-05-25T02:09:46.858Z,14.95
2017-05-25T02:12:15.627Z,19.42
2017-05-25T02:14:44.414Z,23.87
2017-05-25T02:17:13.206Z,22.37
2017-05-25T02:19:41.998Z,26.75
2017-05-25T02:22:10.770Z,17.07
2017-05-25T02:24:39.899Z,19.57
2017-05-25T02:27:08.674Z,17.10
2017-05-25T02:29:38.361Z,24.27
2017-05-25T02:32:07.169Z,24.22
2017-05-25T02:34:36.826Z,22.08
2017-05-25T02:37:05.602Z,21.98
2017-05-25T02:39:34.401Z,25.30
2017-05-25T02:42:03.211Z,26.92
2017-05-25T02:44:31.985Z,21.27
2017-05-25T02:47:00.875Z,20.72
2017-05-25T02:49:29.649Z,27.13
2017-05-25T02:51:58.425Z,25.70
2017-05-25T02:54:27.232Z,18.23
2017-05-25T02:56:56.022Z,17.88
2017-05-25T02:59:24.034Z,20.50
2017-05-25T03:01:52.841Z,21.17
2017-05-25T03:04:21.618Z,25.83
2017-05-25T03:06:50.401Z,28.53
2017-05-25T03:09:20.537Z,26.38
2017-05-25T03:11:50.242Z,29.70
2017-05-25T03:14:19.019Z,31.72
2017-05-25T03:16:47.809Z,31.80
2017-05-25T03:19:16.593Z,27.55
2017-05-25T03:21:45.365Z,21.90
2017-05-25T03:24:14.174Z,20.92
2017-05-25T03:26:42.954Z,27.10
2017-05-25T03:29:11.733Z,27.68
2017-05-25T03:31:40.529Z,23.77
2017-05-25T03:34:09.314Z,22.22
2017-05-25T03:36:38.129Z,21.97
2017-05-25T03:39:06.941Z,18.15
2017-05-25T03:41:35.725Z,25.55
2017-05-25T03:44:04.509Z,22.80
2017-05-25T03:46:33.305Z,28.62
2017-05-25T03:49:03.020Z,21.62
2017-05-25T03:51:31.804Z,30.83
2017-05-25T03:54:00.605Z,20.12
2017-05-25T03:56:29.384Z,20.67
2017-05-25T03:58:58.171Z,25.87
2017-05-25T04:01:26.941Z,24.53
2017-05-25T04:03:55.725Z,21.65
2017-05-25T04:06:24.500Z,17.35
2017-05-25T04:08:53.301Z,20.57
2017-05-25T04:11:22.157Z,21.37
2017-05-25T04:13:50.892Z,25.80
2017-05-25T04:16:19.701Z,22.60
2017-05-25T04:18:48.481Z,30.08
2017-05-25T04:21:18.160Z,54.92
2017-05-25T04:23:46.941Z,30.63
2017-05-25T04:26:15.720Z,27.08
2017-05-25T04:28:44.496Z,25.28
2017-05-25T04:31:13.313Z,43.50
2017-05-25T04:33:42.989Z,30.63
2017-05-25T04:36:11.772Z,96.12
2017-05-25T04:38:40.584Z,199.30
2017-05-25T04:41:09.360Z,486.12
2017-05-25T04:43:38.144Z,231.63
2017-05-25T04:46:06.937Z,106.33
2017-05-25T04:48:35.720Z,36.78
2017-05-25T04:51:04.500Z,55.25
2017-05-25T04:53:36.336Z,52.02
2017-05-25T04:56:05.121Z,122.45
2017-05-25T04:58:33.921Z,174.05
2017-05-25T05:01:02.728Z,117.13
2017-05-25T05:03:31.591Z,120.03
2017-05-25T05:06:00.315Z,230.38
2017-05-25T05:08:29.112Z,52.07
2017-05-25T05:10:57.892Z,107.90
2017-05-25T05:13:26.672Z,150.12
2017-05-25T05:15:55.479Z,153.00
2017-05-25T05:18:24.260Z,434.50
2017-05-25T05:20:53.048Z,81.18
2017-05-25T05:23:21.836Z,115.57
2017-05-25T05:25:51.572Z,41.13
2017-05-25T05:28:20.352Z,142.32
2017-05-25T05:30:49.156Z,29.27
2017-05-25T05:33:17.940Z,28.92
2017-05-25T05:35:46.736Z,24.77
2017-05-25T05:38:15.527Z,22.82
2017-05-25T05:40:44.316Z,27.10
2017-05-25T05:43:13.107Z,20.87
2017-05-25T05:45:41.911Z,26.10
2017-05-25T05:48:10.708Z,29.62
2017-05-25T05:50:39.496Z,22.15
2017-05-25T05:53:08.306Z,22.08
2017-05-25T05:55:37.091Z,24.73
2017-05-25T05:58:05.879Z,24.17
2017-05-25T06:00:36.687Z,26.32
2017-05-25T06:03:05.479Z,21.57
2017-05-25T06:05:34.271Z,24.63
2017-05-25T06:08:03.067Z,19.62
2017-05-25T06:10:31.855Z,19.30
2017-05-25T06:13:00.647Z,17.00
2017-05-25T06:15:29.431Z,16.65
2017-05-25T06:17:58.207Z,23.88
2017-05-25T06:20:26.991Z,29.32
2017-05-25T06:22:55.799Z,26.40
2017-05-25T06:25:24.571Z,25.60
2017-05-25T06:27:53.352Z,27.47
2017-05-25T06:30:22.139Z,26.08
2017-05-25T06:32:54.455Z,26.42
2017-05-25T06:35:25.179Z,25.38
2017-05-25T06:37:53.975Z,22.56
2017-05-25T06:40:22.755Z,30.16
2017-05-25T06:42:51.543Z,25.20
2017-05-25T06:45:20.311Z,26.88
2017-05-25T06:47:49.090Z,24.53
2017-05-25T06:50:18.247Z,24.22
2017-05-25T06:52:47.015Z,25.14
2017-05-25T06:55:15.787Z,24.52
2017-05-25T06:57:44.591Z,24.92
2017-05-25T07:00:13.359Z,23.56
2017-05-25T07:02:42.139Z,21.96
2017-05-25T07:05:10.919Z,23.04
2017-05-25T07:07:39.695Z,22.80
2017-05-25T07:10:08.475Z,25.86
2017-05-25T07:12:38.249Z,24.50
2017-05-25T07:15:07.023Z,25.40
2017-05-25T07:17:35.786Z,25.34
2017-05-25T07:20:04.578Z,24.90
2017-05-25T07:22:33.347Z,25.48
2017-05-25T07:25:02.126Z,24.10
2017-05-25T07:27:30.917Z,23.72
2017-05-25T07:29:59.678Z,21.16
2017-05-25T07:32:28.451Z,18.06
2017-05-25T07:34:57.234Z,21.32
2017-05-25T07:37:26.003Z,16.54
2017-05-25T07:39:54.782Z,14.36
2017-05-25T07:42:23.582Z,16.66
2017-05-25T07:44:52.351Z,18.48
2017-05-25T07:47:21.124Z,16.88
2017-05-25T07:49:49.906Z,16.00
2017-05-25T07:52:18.682Z,17.28
2017-05-25T07:54:47.450Z,13.88
2017-05-25T07:57:16.238Z,15.38
2017-05-25T07:59:45.011Z,8.34
2017-05-25T08:02:13.790Z,11.72
2017-05-25T08:04:42.585Z,9.94
2017-05-25T08:07:11.349Z,9.76
2017-05-25T08:09:40.127Z,10.76
2017-05-25T08:12:14.374Z,8.60
2017-05-25T08:14:43.155Z,8.00
2017-05-25T08:17:11.930Z,6.04
2017-05-25T08:19:41.656Z,6.80
2017-05-25T08:22:10.438Z,8.24
2017-05-25T08:24:39.221Z,5.68
2017-05-25T08:27:11.291Z,6.38
2017-05-25T08:29:40.065Z,5.84
2017-05-25T08:32:08.834Z,5.02
2017-05-25T08:34:38.585Z,4.72
2017-05-25T08:37:07.356Z,7.96
2017-05-25T08:39:36.126Z,5.30
2017-05-25T08:42:08.314Z,3.60
2017-05-25T08:44:37.079Z,4.12
2017-05-25T08:47:05.845Z,3.92
2017-05-25T08:49:34.619Z,4.56
2017-05-25T08:52:03.449Z,3.88
2017-05-25T08:54:32.254Z,4.36
2017-05-25T08:57:01.059Z,7.86
2017-05-25T08:59:29.893Z,4.58
2017-05-25T09:01:59.565Z,4.40
2017-05-25T09:04:28.449Z,8.20
2017-05-25T09:06:57.269Z,3.68
2017-05-25T09:09:26.082Z,4.34
2017-05-25T09:11:54.981Z,5.06
2017-05-25T09:14:23.781Z,6.12
2017-05-25T09:16:52.565Z,4.54
2017-05-25T09:19:22.381Z,3.62
2017-05-25T09:21:51.189Z,4.56
2017-05-25T09:24:20.033Z,4.44
2017-05-25T09:26:49.817Z,6.56
2017-05-25T09:29:19.731Z,2.90
2017-05-25T09:31:50.473Z,4.98
2017-05-25T09:34:19.277Z,2.54
2017-05-25T09:36:48.121Z,3.24
2017-05-25T09:39:16.925Z,2.20
2017-05-25T09:41:45.864Z,2.10
2017-05-25T09:44:14.656Z,1.70
2017-05-25T09:46:43.581Z,2.00
2017-05-25T09:49:12.381Z,2.56
2017-05-25T09:51:41.233Z,2.92
2017-05-25T09:54:10.066Z,2.34
2017-05-25T09:56:39.197Z,2.36
2017-05-25T09:59:07.997Z,3.42
2017-05-25T10:01:36.869Z,1.86
2017-05-25T10:04:05.688Z,5.20
2017-05-25T10:06:34.476Z,2.28
2017-05-25T10:09:03.336Z,2.16
2017-05-25T10:11:32.133Z,2.34
2017-05-25T10:14:01.928Z,2.90
2017-05-25T10:16:30.721Z,2.18
2017-05-25T10:18:59.572Z,3.62
2017-05-25T10:21:28.352Z,2.50
2017-05-25T10:23:58.224Z,2.84
2017-05-25T10:26:27.000Z,3.78
2017-05-25T10:29:02.108Z,3.16
2017-05-25T10:31:30.956Z,5.56
2017-05-25T10:33:59.815Z,3.00
2017-05-25T10:36:29.592Z,3.54
2017-05-25T10:38:59.340Z,1.84
2017-05-25T10:41:28.135Z,3.04
2017-05-25T10:43:57.964Z,2.80
2017-05-25T10:46:26.775Z,2.56
2017-05-25T10:48:56.584Z,1.78
2017-05-25T10:51:26.464Z,2.08
2017-05-25T10:53:55.320Z,1.82
2017-05-25T10:56:24.115Z,3.36
2017-05-25T10:58:52.952Z,2.66
2017-05-25T11:01:21.759Z,2.64
2017-05-25T11:03:52.579Z,3.04
2017-05-25T11:06:21.472Z,3.48
2017-05-25T11:08:51.221Z,3.12
2017-05-25T11:11:21.963Z,3.80
2017-05-25T11:13:50.764Z,3.04
2017-05-25T11:16:20.559Z,2.08
2017-05-25T11:18:51.382Z,3.10
2017-05-25T11:21:20.127Z,2.22
2017-05-25T11:23:49.883Z,2.28
2017-05-25T11:26:19.751Z,2.38
2017-05-25T11:28:51.031Z,2.68
2017-05-25T11:31:19.807Z,2.04
2017-05-25T11:33:49.667Z,1.90
2017-05-25T11:36:18.501Z,2.64
2017-05-25T11:38:51.232Z,1.72
2017-05-25T11:41:20.079Z,2.06
2017-05-25T11:43:51.731Z,2.82
2017-05-25T11:46:22.495Z,2.04
2017-05-25T11:48:51.598Z,2.30
2017-05-25T11:51:20.514Z,2.34
2017-05-25T11:53:49.328Z,2.56
2017-05-25T11:56:18.331Z,4.34
2017-05-25T11:58:47.151Z,3.06
2017-05-25T12:01:16.098Z,2.60
2017-05-25T12:03:44.942Z,3.88
2017-05-25T12:06:13.739Z,2.22
2017-05-25T12:08:42.598Z,3.10
2017-05-25T12:11:11.402Z,2.04
2017-05-25T12:13:44.115Z,3.26
2017-05-25T12:16:12.958Z,2.22
2017-05-25T12:18:42.848Z,2.70
2017-05-25T12:21:11.667Z,2.68
2017-05-25T12:23:41.523Z,3.26
2017-05-25T12:26:10.366Z,4.72
2017-05-25T12:28:39.263Z,3.14
2017-05-25T12:31:09.070Z,3.20
2017-05-25T12:33:37.923Z,1.68
2017-05-25T12:36:06.747Z,1.34
2017-05-25T12:38:35.594Z,2.36
2017-05-25T12:41:05.374Z,2.20
2017-05-25T12:43:34.139Z,2.20
2017-05-25T12:46:02.962Z,1.48
2017-05-25T13:01:20.110Z,1.22
2017-05-25T13:03:48.926Z,2.02
2017-05-25T13:06:18.698Z,3.02
2017-05-25T13:08:47.550Z,1.64
2017-05-25T13:11:16.352Z,1.62
2017-05-25T13:13:45.141Z,2.42
2017-05-25T13:16:14.006Z,1.56
2017-05-25T13:18:42.781Z,1.30
2017-05-25T13:21:11.554Z,3.34
2017-05-25T13:23:40.367Z,2.46
2017-05-25T13:26:09.186Z,2.28
2017-05-25T13:28:38.946Z,2.12
2017-05-25T13:31:07.725Z,3.70
2017-05-25T13:33:36.542Z,1.60
2017-05-25T13:36:05.453Z,3.46
2017-05-25T13:38:34.253Z,1.50
2017-05-25T13:41:03.930Z,1.80
2017-05-25T13:43:32.782Z,3.60
2017-05-25T13:46:01.618Z,2.52
2017-05-25T13:48:30.417Z,1.64
2017-05-25T13:50:59.213Z,3.86
2017-05-25T13:53:29.014Z,2.98
2017-05-25T13:55:57.921Z,2.36
2017-05-25T13:58:26.689Z,2.28
2017-05-25T14:00:55.469Z,2.22
2017-05-25T14:03:24.313Z,2.52
2017-05-25T14:05:53.097Z,1.82
2017-05-25T14:08:21.881Z,2.42
2017-05-25T14:10:50.681Z,3.44
2017-05-25T14:13:19.505Z,2.42
2017-05-25T14:15:48.321Z,2.50
2017-05-25T14:18:17.095Z,1.66
2017-05-25T14:20:46.849Z,3.28
2017-05-25T14:23:16.669Z,4.26
2017-05-25T14:25:45.473Z,1.98
2017-05-25T14:28:14.257Z,2.34
2017-05-25T14:30:43.029Z,5.54
2017-05-25T14:33:12.806Z,2.00
2017-05-25T14:35:41.620Z,2.54
2017-05-25T14:38:10.465Z,2.12
2017-05-25T14:40:40.224Z,1.54
2017-05-25T14:43:11.061Z,1.62
2017-05-25T14:45:39.925Z,3.50
2017-05-25T14:48:08.717Z,2.90
2017-05-25T14:50:37.573Z,4.82
2017-05-25T14:53:06.381Z,3.52
2017-05-25T14:55:35.196Z,3.18
2017-05-25T14:58:04.009Z,2.08
2017-05-25T15:00:32.800Z,4.74
2017-05-25T15:03:02.569Z,1.68
2017-05-25T15:05:31.408Z,2.18
2017-05-25T15:08:00.216Z,1.88
2017-05-25T15:10:29.141Z,2.82
2017-05-25T15:12:58.058Z,2.72
2017-05-25T15:15:27.732Z,3.94
2017-05-25T15:17:56.532Z,1.76
2017-05-25T15:20:25.328Z,2.68
2017-05-25T15:22:54.104Z,1.62
2017-05-25T15:25:22.917Z,2.08
2017-05-25T15:27:51.710Z,2.10
2017-05-25T15:30:20.560Z,2.80
2017-05-25T15:32:49.337Z,1.38
2017-05-25T15:35:18.200Z,4.44
2017-05-25T15:37:47.004Z,5.06
2017-05-25T15:40:15.955Z,2.50
2017-05-25T15:42:44.796Z,1.92
2017-05-25T15:45:13.616Z,4.46
2017-05-25T15:47:42.516Z,2.34
2017-05-25T15:50:11.404Z,1.86
2017-05-25T15:52:40.238Z,1.78
2017-05-25T15:55:09.832Z,2.44
2017-05-25T15:57:38.696Z,4.52
2017-05-25T16:00:07.520Z,3.80
2017-05-25T16:02:36.365Z,3.68
2017-05-25T16:05:05.296Z,2.30
2017-05-25T16:07:34.104Z,3.26
2017-05-25T16:10:02.863Z,3.42
2017-05-25T16:12:31.699Z,2.50
2017-05-25T16:15:00.519Z,3.46
2017-05-25T16:17:29.372Z,2.68
2017-05-25T16:19:58.241Z,2.72
2017-05-25T16:22:27.160Z,2.30
2017-05-25T16:24:55.975Z,2.10
2017-05-25T16:27:24.780Z,3.58
2017-05-25T16:29:53.583Z,1.84
2017-05-25T16:32:22.415Z,3.42
2017-05-25T16:34:51.187Z,2.92
2017-05-25T16:37:19.972Z,3.82
2017-05-25T16:39:48.824Z,2.50
2017-05-25T16:42:17.723Z,2.58
2017-05-25T16:44:46.507Z,3.38
2017-05-25T16:47:15.280Z,2.74
2017-05-25T16:49:44.095Z,2.04
2017-05-25T16:52:12.948Z,2.64
2017-05-25T16:54:41.719Z,1.48
2017-05-25T16:57:10.508Z,2.00
2017-05-25T16:59:39.315Z,2.70
2017-05-25T17:02:08.171Z,2.50
2017-05-25T17:04:36.963Z,2.92
2017-05-25T17:07:05.835Z,2.36
2017-05-25T17:09:34.668Z,3.06
2017-05-25T17:12:03.503Z,2.40
2017-05-25T17:14:32.283Z,6.94
2017-05-25T17:17:01.139Z,2.48
2017-05-25T17:19:29.982Z,3.24
2017-05-25T17:21:58.891Z,2.12
2017-05-25T17:24:27.719Z,3.50
2017-05-25T17:26:56.563Z,2.12
2017-05-25T17:29:25.355Z,2.78
2017-05-25T17:31:54.139Z,1.94
2017-05-25T17:34:23.203Z,4.84
2017-05-25T17:36:52.023Z,2.10
2017-05-25T17:39:20.823Z,3.12
2017-05-25T17:41:49.790Z,2.12
2017-05-25T17:44:19.543Z,2.48
2017-05-25T17:46:48.343Z,2.34
2017-05-25T17:49:17.223Z,3.52
2017-05-25T17:51:46.017Z,1.82
2017-05-25T17:54:14.787Z,4.94
2017-05-25T17:56:43.607Z,1.56
2017-05-25T17:59:12.400Z,2.20
2017-05-25T18:01:41.343Z,2.78
2017-05-25T18:04:11.191Z,1.32
2017-05-25T18:06:39.962Z,3.76
2017-05-25T18:09:08.746Z,3.08
2017-05-25T18:11:37.610Z,2.52
2017-05-25T18:14:07.367Z,3.56
2017-05-25T18:16:36.147Z,2.58
2017-05-25T18:19:04.938Z,5.54
2017-05-25T18:21:33.722Z,1.70
2017-05-25T18:24:04.354Z,2.12
2017-05-25T18:26:33.126Z,2.20
2017-05-25T18:29:01.894Z,5.92
2017-05-25T18:31:30.686Z,2.14
2017-05-25T18:33:59.462Z,3.24
2017-05-25T18:36:28.250Z,2.78
2017-05-25T18:38:57.042Z,1.96
2017-05-25T18:41:26.790Z,2.36
2017-05-25T18:43:55.578Z,5.04
2017-05-25T18:46:24.366Z,28.32
2017-05-25T18:48:53.151Z,9.76
2017-05-25T18:51:21.930Z,2.28
2017-05-25T18:53:50.694Z,2.32
2017-05-25T18:56:19.470Z,2.10
2017-05-25T18:58:48.250Z,2.02
2017-05-25T19:01:17.024Z,6.52
2017-05-25T19:03:45.818Z,3.76
2017-05-25T19:06:14.598Z,23.58
2017-05-25T19:08:43.386Z,35.74
2017-05-25T19:11:12.154Z,19.26
2017-05-25T19:13:40.922Z,6.06
2017-05-25T19:16:10.593Z,8.52
2017-05-25T19:18:39.358Z,5.68
2017-05-25T19:21:08.138Z,3.60
2017-05-25T19:23:36.929Z,2.32
2017-05-25T19:26:05.714Z,4.48
2017-05-25T19:28:34.665Z,7.36
2017-05-25T19:31:03.562Z,2.74
2017-05-25T19:33:33.297Z,3.12
2017-05-25T19:36:02.129Z,3.96
2017-05-25T19:38:31.006Z,3.00
2017-05-25T19:40:59.805Z,2.70
2017-05-25T19:43:29.577Z,4.50
2017-05-25T19:45:58.529Z,2.64
2017-05-25T19:48:27.366Z,4.88
2017-05-25T19:50:56.157Z,4.20
2017-05-25T19:53:24.977Z,10.32
2017-05-25T19:55:54.757Z,8.92
2017-05-25T19:58:25.612Z,4.52
2017-05-25T20:00:54.514Z,8.82
2017-05-25T20:03:24.270Z,5.18
2017-05-25T20:05:53.266Z,4.58
2017-05-25T20:08:22.193Z,6.86
2017-05-25T20:10:50.981Z,4.02
2017-05-25T20:13:19.777Z,3.54
2017-05-25T20:15:48.585Z,4.80
2017-05-25T20:18:19.448Z,9.94
2017-05-25T20:20:48.325Z,20.70
2017-05-25T20:23:17.126Z,10.60
2017-05-25T20:25:45.956Z,6.62
2017-05-25T20:28:14.905Z,3.10
2017-05-25T20:30:43.813Z,3.40
2017-05-25T20:33:12.648Z,2.64
2017-05-25T20:35:41.566Z,3.12
2017-05-25T20:38:10.325Z,3.74
2017-05-25T20:40:39.162Z,3.94
2017-05-25T20:43:08.004Z,5.12
2017-05-25T20:45:36.893Z,42.08
2017-05-25T20:48:05.736Z,11.90
2017-05-25T20:50:34.557Z,14.54
2017-05-25T20:53:05.532Z,8.10
2017-05-25T20:55:34.367Z,7.46
2017-05-25T20:58:03.176Z,4.90
2017-05-25T21:00:32.100Z,5.28
2017-05-25T21:03:00.897Z,11.58
2017-05-25T21:05:29.708Z,4.16
2017-05-25T21:07:58.508Z,5.22
2017-05-25T21:10:27.605Z,6.18
2017-05-25T21:12:56.437Z,7.78
2017-05-25T21:15:25.247Z,6.74
2017-05-25T21:17:54.040Z,3.40
2017-05-25T21:20:22.908Z,4.08
2017-05-25T21:22:51.865Z,3.72
2017-05-25T21:25:21.144Z,3.90
2017-05-25T21:27:49.993Z,5.14
2017-05-25T21:30:18.873Z,5.34
2017-05-25T21:32:47.732Z,5.34
2017-05-25T21:35:18.179Z,4.16
2017-05-25T21:37:47.176Z,3.70
2017-05-25T21:40:17.080Z,3.62
2017-05-25T21:42:46.936Z,4.20
2017-05-25T21:45:15.803Z,3.50
2017-05-25T21:47:44.595Z,6.00
2017-05-25T21:50:13.400Z,4.92
2017-05-25T21:52:42.193Z,4.62
2017-05-25T21:55:10.968Z,4.98
2017-05-25T21:57:39.868Z,4.00
2017-05-25T22:00:08.698Z,4.88
2017-05-25T22:02:39.616Z,7.18
2017-05-25T22:05:09.219Z,5.97
2017-05-25T22:07:41.956Z,3.22
2017-05-25T22:10:12.843Z,4.02
2017-05-25T22:12:44.952Z,3.66
2017-05-25T22:15:13.898Z,4.14
2017-05-25T22:17:42.715Z,4.60
2017-05-25T22:20:12.203Z,4.34
2017-05-25T22:22:43.212Z,4.08
2017-05-25T22:25:12.071Z,4.92
2017-05-25T22:27:40.904Z,4.98
2017-05-25T22:30:09.791Z,4.82
2017-05-25T22:32:37.956Z,4.12
2017-05-25T22:35:06.772Z,6.37
2017-05-25T22:37:35.615Z,4.05
2017-05-25T22:40:05.328Z,4.46
2017-05-25T22:42:34.575Z,4.57
2017-05-25T22:45:06.015Z,4.00
2017-05-25T22:47:35.692Z,6.93
2017-05-25T22:50:06.127Z,4.33
2017-05-25T22:52:35.527Z,4.08
2017-05-25T22:55:04.348Z,5.30
2017-05-25T22:57:33.615Z,4.63
2017-05-25T23:00:04.718Z,4.43
2017-05-25T23:02:35.695Z,5.65
2017-05-25T23:05:05.007Z,3.92
2017-05-25T23:07:34.876Z,3.82
2017-05-25T23:10:05.931Z,3.77
2017-05-25T23:12:35.976Z,3.75
2017-05-25T23:15:04.930Z,4.42
2017-05-25T23:17:34.623Z,3.90
2017-05-25T23:20:03.458Z,4.35
2017-05-25T23:22:32.346Z,3.68
2017-05-25T23:25:01.184Z,7.25
2017-05-25T23:27:30.886Z,4.63
2017-05-25T23:29:59.716Z,4.95
2017-05-25T23:32:28.519Z,4.53
2017-05-25T23:34:57.315Z,4.97
2017-05-25T23:37:26.130Z,6.18
2017-05-25T23:39:54.939Z,4.43
2017-05-25T23:42:24.663Z,4.75
2017-05-25T23:44:53.530Z,5.97
2017-05-25T23:47:22.354Z,4.50
2017-05-25T23:49:51.207Z,4.38
2017-05-25T23:52:21.951Z,3.85
2017-05-25T23:54:50.747Z,5.12
2017-05-25T23:57:19.530Z,4.30
2017-05-25T23:59:48.418Z,4.70
